createdAt,value
2022-12-07T00:01:22.506Z,8.00
2022-12-07T00:03:53.153Z,9.00
2022-12-07T00:06:22.304Z,8.33
2022-12-07T00:08:50.472Z,8.03
2022-12-07T00:11:21.610Z,9.10
2022-12-07T00:13:53.342Z,8.90
2022-12-07T00:16:24.133Z,8.63
2022-12-07T00:18:52.267Z,8.10
2022-12-07T00:21:22.164Z,8.50
2022-12-07T00:23:53.363Z,7.70
2022-12-07T00:26:24.956Z,8.00
2022-12-07T00:28:54.753Z,8.13
2022-12-07T00:31:25.401Z,7.70
2022-12-07T00:33:53.689Z,6.97
2022-12-07T00:36:27.022Z,7.50
2022-12-07T00:38:56.112Z,6.87
2022-12-07T00:41:27.216Z,7.63
2022-12-07T00:43:55.973Z,7.17
2022-12-07T00:46:24.970Z,6.73
2022-12-07T00:48:54.015Z,6.00
2022-12-07T00:51:25.130Z,5.87
2022-12-07T00:53:53.901Z,5.37
2022-12-07T00:56:24.104Z,5.93
2022-12-07T00:58:55.047Z,6.03
2022-12-07T01:01:23.705Z,5.47
2022-12-07T01:03:51.813Z,4.10
2022-12-07T01:06:22.131Z,4.43
2022-12-07T01:08:50.786Z,4.70
2022-12-07T01:11:20.845Z,4.00
2022-12-07T01:13:49.161Z,4.30
2022-12-07T01:16:20.186Z,3.73
2022-12-07T01:18:49.620Z,3.70
2022-12-07T01:21:19.749Z,3.83
2022-12-07T01:23:47.864Z,3.77
2022-12-07T01:26:18.543Z,2.87
2022-12-07T01:28:46.884Z,3.10
2022-12-07T01:31:17.378Z,3.00
2022-12-07T01:33:48.685Z,2.73
2022-12-07T01:36:18.914Z,2.87
2022-12-07T01:38:48.328Z,2.80
2022-12-07T01:41:17.207Z,2.23
2022-12-07T01:44:13.976Z,2.23
2022-12-07T01:46:43.525Z,1.80
2022-12-07T01:49:18.034Z,2.37
2022-12-07T01:51:48.417Z,1.90
2022-12-07T01:54:17.713Z,1.60
2022-12-07T01:56:51.152Z,1.70
2022-12-07T01:59:20.888Z,1.70
2022-12-07T02:01:49.166Z,2.23
2022-12-07T02:04:19.447Z,1.70
2022-12-07T02:06:47.909Z,2.00
2022-12-07T02:09:16.176Z,1.87
2022-12-07T02:11:44.337Z,1.70
2022-12-07T02:14:12.368Z,1.57
2022-12-07T02:16:49.363Z,1.37
2022-12-07T02:19:52.924Z,1.30
2022-12-07T02:22:45.331Z,1.90
2022-12-07T02:25:24.501Z,1.50
2022-12-07T02:27:58.337Z,1.40
2022-12-07T02:30:33.107Z,1.67
2022-12-07T02:33:06.112Z,1.50
2022-12-07T02:35:37.616Z,1.57
2022-12-07T02:38:13.532Z,1.67
2022-12-07T02:40:45.923Z,1.63
2022-12-07T02:43:19.000Z,1.27
2022-12-07T02:45:49.943Z,1.37
2022-12-07T02:48:20.656Z,1.57
2022-12-07T02:50:51.833Z,1.60
2022-12-07T02:53:36.908Z,1.60
2022-12-07T02:56:10.935Z,2.20
2022-12-07T02:58:52.547Z,1.80
2022-12-07T03:01:32.853Z,1.30
2022-12-07T03:04:20.188Z,1.40
2022-12-07T03:06:55.552Z,1.20
2022-12-07T03:09:30.697Z,1.57
2022-12-07T03:12:05.704Z,1.63
2022-12-07T03:14:40.944Z,1.80
2022-12-07T03:17:15.972Z,1.37
2022-12-07T03:19:47.007Z,1.17
2022-12-07T03:22:16.721Z,1.40
2022-12-07T03:24:49.219Z,1.30
2022-12-07T03:27:21.363Z,1.00
2022-12-07T03:29:53.871Z,1.23
2022-12-07T03:32:27.990Z,1.03
2022-12-07T03:35:02.580Z,1.20
2022-12-07T03:37:35.487Z,0.87
2022-12-07T03:40:08.814Z,1.00
2022-12-07T03:42:36.915Z,1.13
2022-12-07T03:45:07.854Z,1.30
2022-12-07T03:47:42.306Z,1.20
2022-12-07T03:50:15.776Z,1.17
2022-12-07T03:52:48.425Z,1.63
2022-12-07T03:55:21.113Z,1.40
2022-12-07T03:57:53.278Z,1.13
2022-12-07T04:00:21.492Z,1.53
2022-12-07T04:02:54.222Z,2.10
2022-12-07T04:05:22.700Z,1.90
2022-12-07T04:07:50.790Z,1.47
2022-12-07T04:10:19.272Z,1.10
2022-12-07T04:12:47.344Z,1.73
2022-12-07T04:15:15.369Z,1.60
2022-12-07T04:17:43.392Z,1.50
2022-12-07T04:20:14.375Z,1.90
2022-12-07T04:22:42.591Z,1.53
2022-12-07T04:25:11.032Z,1.23
2022-12-07T04:27:39.121Z,1.77
2022-12-07T04:30:08.454Z,1.23
2022-12-07T04:32:36.476Z,1.17
2022-12-07T04:35:04.840Z,1.53
2022-12-07T04:37:34.317Z,1.20
2022-12-07T04:40:02.602Z,1.40
2022-12-07T04:42:30.978Z,1.57
2022-12-07T04:44:58.967Z,1.30
2022-12-07T04:47:26.943Z,1.77
2022-12-07T04:49:55.036Z,1.57
2022-12-07T04:52:23.092Z,1.37
2022-12-07T04:54:52.548Z,1.50
2022-12-07T04:57:20.625Z,1.63
2022-12-07T04:59:48.597Z,2.17
2022-12-07T05:02:16.710Z,2.13
2022-12-07T05:04:44.777Z,1.10
2022-12-07T05:07:12.752Z,1.53
2022-12-07T05:09:40.771Z,1.20
2022-12-07T05:12:10.209Z,1.10
2022-12-07T05:14:38.222Z,0.90
2022-12-07T05:17:06.266Z,0.90
2022-12-07T05:19:34.295Z,0.80
2022-12-07T05:22:02.269Z,1.20
2022-12-07T05:24:30.310Z,1.20
2022-12-07T05:26:58.306Z,0.90
2022-12-07T05:29:27.699Z,0.77
2022-12-07T05:31:55.723Z,1.40
2022-12-07T05:34:23.744Z,0.93
2022-12-07T05:36:52.176Z,1.27
2022-12-07T05:39:20.361Z,1.23
2022-12-07T05:42:05.577Z,0.83
2022-12-07T05:44:35.006Z,1.00
2022-12-07T05:47:03.210Z,1.07
2022-12-07T05:49:31.224Z,1.20
2022-12-07T05:51:59.445Z,0.83
2022-12-07T05:54:27.534Z,1.23
2022-12-07T05:56:55.587Z,1.13
2022-12-07T05:59:25.996Z,1.20
2022-12-07T06:01:57.249Z,1.07
2022-12-07T06:04:26.837Z,0.97
2022-12-07T06:06:55.053Z,1.00
2022-12-07T06:09:24.600Z,0.90
2022-12-07T06:12:10.251Z,0.90
2022-12-07T06:14:38.445Z,1.23
2022-12-07T06:17:08.001Z,1.00
2022-12-07T06:19:36.288Z,1.10
2022-12-07T06:22:05.557Z,1.03
2022-12-07T06:24:33.869Z,1.07
2022-12-07T06:27:02.298Z,1.03
2022-12-07T06:29:30.365Z,1.30
2022-12-07T06:31:58.563Z,1.50
2022-12-07T06:34:28.633Z,1.50
2022-12-07T06:36:56.925Z,1.10
2022-12-07T06:39:26.595Z,1.40
2022-12-07T06:41:55.040Z,1.10
2022-12-07T06:44:24.280Z,0.90
2022-12-07T06:46:55.937Z,1.13
2022-12-07T06:49:36.364Z,1.10
2022-12-07T06:52:05.855Z,1.13
2022-12-07T06:54:33.856Z,1.60
2022-12-07T06:57:01.926Z,0.90
2022-12-07T06:59:29.934Z,1.10
2022-12-07T07:01:57.967Z,1.30
2022-12-07T07:04:26.022Z,1.07
2022-12-07T07:06:59.822Z,1.40
2022-12-07T07:09:28.248Z,1.40
2022-12-07T07:11:56.761Z,1.67
2022-12-07T07:14:24.768Z,1.47
2022-12-07T07:16:52.870Z,1.37
2022-12-07T07:19:21.099Z,1.17
2022-12-07T07:21:49.127Z,1.67
2022-12-07T07:24:18.471Z,1.50
2022-12-07T07:26:46.484Z,1.40
2022-12-07T07:29:14.665Z,1.40
2022-12-07T07:31:42.741Z,1.70
2022-12-07T07:34:10.720Z,1.73
2022-12-07T07:36:38.813Z,2.13
2022-12-07T07:39:07.041Z,1.70
2022-12-07T07:41:36.454Z,1.40
2022-12-07T07:44:05.075Z,1.20
2022-12-07T07:46:34.323Z,1.13
2022-12-07T07:49:02.416Z,1.23
2022-12-07T07:51:30.420Z,1.80
2022-12-07T07:53:58.498Z,1.57
2022-12-07T07:56:26.463Z,1.60
2022-12-07T07:58:55.892Z,1.30
2022-12-07T08:01:23.972Z,2.10
2022-12-07T08:03:52.116Z,1.47
2022-12-07T08:06:20.155Z,2.17
2022-12-07T08:08:48.215Z,1.90
2022-12-07T08:11:16.221Z,2.07
2022-12-07T08:13:46.914Z,3.20
2022-12-07T08:16:16.545Z,2.00
2022-12-07T08:18:45.175Z,2.07
2022-12-07T08:21:16.197Z,2.20
2022-12-07T08:23:44.738Z,2.03
2022-12-07T08:26:14.898Z,2.17
2022-12-07T08:28:42.967Z,2.13
2022-12-07T08:31:14.308Z,1.87
2022-12-07T08:33:43.986Z,2.00
2022-12-07T08:36:13.884Z,2.13
2022-12-07T08:39:01.568Z,1.57
2022-12-07T08:41:31.855Z,2.30
2022-12-07T08:43:59.870Z,1.87
2022-12-07T08:46:30.906Z,1.67
2022-12-07T08:49:04.382Z,1.93
2022-12-07T08:51:32.643Z,1.70
2022-12-07T08:54:02.755Z,1.70
2022-12-07T08:56:30.914Z,2.00
2022-12-07T08:59:00.141Z,2.20
2022-12-07T09:01:28.191Z,2.00
2022-12-07T09:03:56.284Z,1.90
2022-12-07T09:06:25.870Z,2.03
2022-12-07T09:08:57.785Z,1.87
2022-12-07T09:11:28.765Z,1.87
2022-12-07T09:13:57.437Z,2.00
2022-12-07T09:16:25.554Z,2.00
2022-12-07T09:18:53.599Z,2.13
2022-12-07T09:21:21.649Z,2.03
2022-12-07T09:23:51.138Z,1.77
2022-12-07T09:26:19.143Z,2.13
2022-12-07T09:28:47.183Z,2.47
2022-12-07T09:31:23.319Z,2.00
2022-12-07T09:33:55.951Z,1.70
2022-12-07T09:36:24.070Z,1.90
2022-12-07T09:38:53.642Z,1.97
2022-12-07T09:41:23.132Z,2.00
2022-12-07T09:43:51.633Z,1.70
2022-12-07T09:46:23.307Z,1.90
2022-12-07T09:48:52.568Z,1.97
2022-12-07T09:51:24.885Z,2.00
2022-12-07T09:53:57.159Z,1.83
2022-12-07T09:56:26.178Z,1.97
2022-12-07T09:59:01.211Z,2.07
2022-12-07T10:01:32.382Z,2.20
2022-12-07T10:04:08.744Z,1.80
2022-12-07T10:06:36.769Z,1.90
2022-12-07T10:09:11.892Z,1.73
2022-12-07T10:12:06.625Z,2.10
2022-12-07T10:15:06.212Z,1.80
2022-12-07T10:17:37.486Z,1.53
2022-12-07T10:20:15.782Z,2.23
2022-12-07T10:22:58.416Z,2.50
2022-12-07T10:25:33.533Z,1.27
2022-12-07T10:28:14.183Z,1.42
2022-12-07T10:30:50.635Z,1.35
2022-12-07T10:33:36.776Z,1.70
2022-12-07T10:36:20.445Z,1.80
2022-12-07T10:38:50.548Z,1.70
2022-12-07T10:41:20.128Z,1.42
2022-12-07T10:43:58.702Z,1.55
2022-12-07T10:47:11.849Z,1.73
2022-12-07T10:50:09.776Z,1.50
2022-12-07T10:52:50.323Z,1.63
2022-12-07T10:55:25.850Z,1.52
2022-12-07T10:58:23.249Z,1.27
2022-12-07T11:01:01.400Z,1.27
2022-12-07T11:03:43.068Z,0.63
2022-12-07T11:06:26.138Z,1.20
2022-12-07T11:09:59.568Z,1.20
2022-12-07T11:12:26.049Z,1.02
2022-12-07T11:15:00.698Z,1.40
2022-12-07T11:17:36.956Z,0.80
2022-12-07T11:20:16.488Z,1.98
2022-12-07T11:22:52.410Z,1.10
2022-12-07T11:25:30.616Z,0.82
2022-12-07T11:28:13.105Z,1.40
2022-12-07T11:30:48.131Z,1.67
2022-12-07T11:33:25.228Z,1.50
2022-12-07T11:36:05.336Z,1.30
2022-12-07T11:38:40.067Z,1.30
2022-12-07T11:41:14.814Z,1.30
2022-12-07T11:43:55.816Z,1.40
2022-12-07T11:46:29.871Z,0.82
2022-12-07T11:49:04.364Z,1.42
2022-12-07T11:51:37.305Z,1.50
2022-12-07T11:54:13.015Z,1.25
2022-12-07T11:56:41.112Z,1.08
2022-12-07T11:59:15.215Z,1.23
2022-12-07T12:01:53.817Z,1.30
2022-12-07T12:04:33.010Z,1.45
2022-12-07T12:09:54.936Z,1.05
2022-12-07T12:15:39.705Z,1.50
2022-12-07T12:18:35.695Z,1.23
2022-12-07T12:21:08.741Z,1.10
2022-12-07T12:23:43.205Z,0.90
2022-12-07T12:26:19.761Z,1.20
2022-12-07T12:28:56.678Z,1.17
2022-12-07T12:31:43.471Z,1.23
2022-12-07T12:34:42.076Z,1.20
2022-12-07T12:37:46.434Z,1.00
2022-12-07T12:40:51.129Z,1.10
2022-12-07T12:43:53.523Z,1.20
2022-12-07T12:46:54.879Z,1.50
2022-12-07T12:49:44.141Z,1.63
2022-12-07T12:52:53.109Z,1.23
2022-12-07T12:55:30.960Z,0.80
2022-12-07T12:58:30.540Z,0.90
2022-12-07T13:01:50.157Z,1.10
2022-12-07T13:04:31.239Z,1.35
2022-12-07T13:07:00.714Z,1.33
2022-12-07T13:09:32.447Z,1.10
2022-12-07T13:12:06.508Z,1.38
2022-12-07T13:15:01.627Z,1.30
2022-12-07T13:18:02.572Z,1.00
2022-12-07T13:20:54.665Z,0.90
2022-12-07T13:23:31.129Z,1.27
2022-12-07T13:26:18.489Z,0.75
2022-12-07T13:28:49.387Z,0.93
2022-12-07T13:31:36.964Z,1.58
2022-12-07T13:34:06.357Z,1.33
2022-12-07T13:36:39.129Z,1.17
2022-12-07T13:39:23.334Z,1.25
2022-12-07T13:41:53.889Z,1.10
2022-12-07T13:44:22.207Z,1.25
2022-12-07T13:46:57.939Z,0.80
2022-12-07T13:49:28.008Z,1.50
2022-12-07T13:51:57.209Z,1.10
2022-12-07T13:54:26.573Z,1.25
2022-12-07T13:56:55.180Z,1.40
2022-12-07T13:59:24.890Z,1.60
2022-12-07T14:01:54.148Z,1.52
2022-12-07T14:04:32.971Z,1.65
2022-12-07T14:07:02.956Z,1.38
2022-12-07T14:09:32.462Z,1.60
2022-12-07T14:12:01.029Z,1.67
2022-12-07T14:14:36.502Z,2.05
2022-12-07T14:17:14.608Z,1.95
2022-12-07T14:19:49.219Z,1.73
2022-12-07T14:22:32.859Z,2.08
2022-12-07T14:25:13.825Z,2.20
2022-12-07T14:27:50.596Z,1.35
2022-12-07T14:30:19.755Z,1.70
2022-12-07T14:32:56.256Z,1.92
2022-12-07T14:35:24.490Z,2.00
2022-12-07T14:37:53.212Z,1.80
2022-12-07T14:40:24.748Z,1.80
2022-12-07T14:42:57.410Z,1.45
2022-12-07T14:45:25.730Z,1.45
2022-12-07T14:53:37.745Z,1.30
2022-12-07T14:56:07.985Z,1.20
2022-12-07T14:58:36.363Z,0.93
2022-12-07T15:01:04.813Z,1.03
2022-12-07T15:03:32.902Z,1.00
2022-12-07T15:06:00.967Z,1.07
2022-12-07T15:08:29.225Z,0.90
2022-12-07T15:10:57.256Z,1.03
2022-12-07T15:13:44.761Z,1.00
2022-12-07T15:16:15.046Z,1.17
2022-12-07T15:18:53.236Z,1.17
2022-12-07T15:21:31.114Z,1.07
2022-12-07T15:23:59.127Z,0.77
2022-12-07T15:26:27.123Z,0.93
2022-12-07T15:28:56.733Z,0.93
2022-12-07T15:31:53.917Z,0.80
2022-12-07T15:34:12.940Z,1.20
2022-12-07T15:36:40.928Z,0.77
2022-12-07T15:39:16.107Z,0.70
2022-12-07T15:41:44.249Z,0.90
2022-12-07T15:44:32.493Z,1.00
2022-12-07T15:47:00.537Z,1.97
2022-12-07T15:49:29.700Z,1.07
2022-12-07T15:51:57.816Z,1.10
2022-12-07T15:54:27.594Z,0.83
2022-12-07T15:56:56.377Z,1.00
2022-12-07T15:59:27.747Z,1.20
2022-12-07T16:01:55.849Z,1.40
2022-12-07T16:04:23.953Z,5.23
2022-12-07T16:06:52.440Z,5.50
2022-12-07T16:09:20.632Z,3.27
2022-12-07T16:11:48.935Z,1.90
2022-12-07T16:14:16.944Z,1.40
2022-12-07T16:16:46.406Z,1.43
2022-12-07T16:19:14.590Z,1.07
2022-12-07T16:21:43.240Z,1.00
2022-12-07T16:24:13.640Z,1.20
2022-12-07T16:26:46.356Z,1.30
2022-12-07T16:29:20.749Z,1.17
2022-12-07T16:31:50.758Z,0.73
2022-12-07T16:34:19.389Z,1.00
2022-12-07T16:37:05.027Z,1.27
2022-12-07T16:39:33.873Z,1.37
2022-12-07T16:42:01.966Z,1.07
2022-12-07T16:44:30.080Z,1.20
2022-12-07T16:46:59.484Z,1.23
2022-12-07T16:49:27.558Z,0.90
2022-12-07T16:52:18.347Z,1.00
2022-12-07T16:54:43.981Z,1.10
2022-12-07T16:57:15.432Z,1.20
2022-12-07T16:59:47.085Z,1.30
2022-12-07T17:02:16.526Z,1.30
2022-12-07T17:04:44.579Z,1.40
2022-12-07T17:07:13.330Z,2.27
2022-12-07T17:09:41.461Z,1.80
2022-12-07T17:12:09.436Z,2.13
2022-12-07T17:14:55.282Z,1.70
2022-12-07T17:17:24.763Z,2.30
2022-12-07T17:19:52.794Z,2.17
2022-12-07T17:22:20.808Z,2.53
2022-12-07T17:24:48.910Z,2.67
2022-12-07T17:27:17.337Z,2.67
2022-12-07T17:29:45.379Z,2.40
2022-12-07T17:32:13.484Z,2.13
2022-12-07T17:34:43.020Z,2.50
2022-12-07T17:37:11.084Z,2.47
2022-12-07T17:39:39.212Z,2.80
2022-12-07T17:42:24.909Z,2.37
2022-12-07T17:44:52.917Z,2.03
2022-12-07T17:47:22.071Z,1.90
2022-12-07T17:49:51.685Z,1.57
2022-12-07T17:52:37.204Z,2.07
2022-12-07T17:55:06.417Z,2.20
2022-12-07T17:57:34.688Z,1.73
2022-12-07T18:00:02.761Z,1.60
2022-12-07T18:02:40.040Z,1.00
2022-12-07T18:05:11.284Z,1.53
2022-12-07T18:07:39.433Z,2.40
2022-12-07T18:10:09.265Z,2.40
2022-12-07T18:12:37.345Z,1.90
2022-12-07T18:15:06.233Z,2.20
2022-12-07T18:17:34.474Z,2.13
2022-12-07T18:20:02.631Z,3.30
2022-12-07T18:22:32.149Z,3.80
2022-12-07T18:25:00.416Z,4.50
2022-12-07T18:27:28.755Z,3.23
2022-12-07T18:29:57.057Z,3.13
2022-12-07T18:32:25.227Z,2.10
2022-12-07T18:34:54.147Z,5.10
2022-12-07T18:37:27.394Z,4.53
2022-12-07T18:39:58.416Z,3.40
2022-12-07T18:42:26.487Z,2.87
2022-12-07T18:44:54.498Z,2.73
2022-12-07T18:47:22.603Z,2.80
2022-12-07T18:49:50.691Z,2.83
2022-12-07T18:52:18.704Z,3.27
2022-12-07T18:54:48.383Z,3.30
2022-12-07T18:57:17.812Z,3.03
2022-12-07T18:59:49.725Z,3.73
2022-12-07T19:02:19.129Z,3.97
2022-12-07T19:04:47.318Z,3.90
2022-12-07T19:07:15.396Z,3.70
2022-12-07T19:09:43.378Z,3.27
2022-12-07T19:12:13.093Z,3.10
2022-12-07T19:14:42.695Z,3.37
2022-12-07T19:17:12.791Z,3.07
2022-12-07T19:19:43.308Z,3.23
2022-12-07T19:22:12.514Z,3.53
2022-12-07T19:24:40.554Z,3.20
2022-12-07T19:27:09.459Z,2.90
2022-12-07T19:29:37.778Z,3.03
2022-12-07T19:32:09.311Z,2.53
2022-12-07T19:34:37.485Z,2.60
2022-12-07T19:37:06.086Z,2.73
2022-12-07T19:39:34.754Z,3.03
2022-12-07T19:42:02.973Z,2.60
2022-12-07T19:44:33.227Z,2.33
2022-12-07T19:47:05.287Z,2.23
2022-12-07T19:49:36.496Z,2.23
2022-12-07T19:52:06.609Z,1.90
2022-12-07T19:54:35.544Z,2.20
2022-12-07T19:57:05.802Z,1.97
2022-12-07T19:59:34.584Z,1.60
2022-12-07T20:02:02.700Z,2.10
2022-12-07T20:04:35.463Z,2.90
2022-12-07T20:07:05.185Z,2.50
2022-12-07T20:09:33.497Z,2.10
2022-12-07T20:12:18.706Z,1.30
2022-12-07T20:14:46.713Z,0.47
2022-12-07T20:17:14.846Z,1.00
2022-12-07T20:19:42.876Z,0.93
2022-12-07T20:22:12.334Z,1.70
2022-12-07T20:24:40.800Z,1.40
2022-12-07T20:27:08.788Z,1.40
2022-12-07T20:29:36.804Z,4.63
2022-12-07T20:32:05.133Z,2.40
2022-12-07T20:34:33.151Z,1.90
2022-12-07T20:37:01.136Z,2.23
2022-12-07T20:39:30.855Z,3.07
2022-12-07T20:42:16.248Z,2.37
2022-12-07T20:44:44.289Z,1.90
2022-12-07T20:47:12.303Z,2.20
2022-12-07T20:49:40.346Z,2.40
2022-12-07T20:52:08.361Z,3.07
2022-12-07T20:54:38.510Z,3.30
2022-12-07T20:57:06.657Z,3.40
2022-12-07T20:59:39.908Z,3.40
2022-12-07T21:02:12.710Z,3.53
2022-12-07T21:04:40.853Z,3.90
2022-12-07T21:07:09.077Z,3.53
2022-12-07T21:09:38.554Z,3.83
2022-12-07T21:12:11.108Z,4.07
2022-12-07T21:14:41.766Z,3.57
2022-12-07T21:17:10.213Z,3.70
2022-12-07T21:19:38.271Z,3.27
2022-12-07T21:22:06.340Z,3.23
2022-12-07T21:24:34.880Z,3.60
2022-12-07T21:27:04.321Z,3.13
2022-12-07T21:29:43.368Z,3.27
2022-12-07T21:32:12.780Z,2.80
2022-12-07T21:34:40.890Z,3.03
2022-12-07T21:37:08.959Z,3.07
2022-12-07T21:39:36.956Z,3.37
2022-12-07T21:42:06.427Z,3.37
2022-12-07T21:44:34.713Z,3.73
2022-12-07T21:47:02.760Z,4.13
2022-12-07T21:49:30.984Z,4.00
2022-12-07T21:51:58.995Z,4.27
2022-12-07T21:54:27.037Z,3.83
2022-12-07T21:56:55.008Z,3.80
2022-12-07T21:59:24.826Z,4.00
2022-12-07T22:01:53.308Z,4.00
2022-12-07T22:04:24.085Z,3.80
2022-12-07T22:06:53.295Z,4.40
2022-12-07T22:09:23.284Z,4.13
2022-12-07T22:11:51.568Z,4.23
2022-12-07T22:14:37.338Z,3.60
2022-12-07T22:17:06.770Z,4.30
2022-12-07T22:19:35.162Z,4.77
2022-12-07T22:22:03.374Z,4.97
2022-12-07T22:24:31.589Z,5.50
2022-12-07T22:26:59.632Z,5.23
2022-12-07T22:29:27.783Z,5.70
2022-12-07T22:31:55.852Z,5.00
2022-12-07T22:34:25.316Z,5.30
2022-12-07T22:36:53.333Z,5.93
2022-12-07T22:39:21.345Z,5.70
2022-12-07T22:41:49.372Z,5.97
2022-12-07T22:44:18.908Z,6.03
2022-12-07T22:46:47.432Z,6.37
2022-12-07T22:49:15.543Z,6.30
2022-12-07T22:51:45.069Z,6.70
2022-12-07T22:54:16.754Z,6.37
2022-12-07T22:56:45.415Z,6.03
2022-12-07T22:59:14.775Z,7.20
2022-12-07T23:01:42.844Z,7.00
2022-12-07T23:04:11.109Z,7.77
2022-12-07T23:06:39.253Z,7.83
2022-12-07T23:09:11.496Z,7.70
2022-12-07T23:12:01.234Z,7.33
2022-12-07T23:14:32.665Z,6.37
2022-12-07T23:17:01.245Z,5.77
2022-12-07T23:19:29.572Z,5.60
2022-12-07T23:21:57.785Z,5.47
2022-12-07T23:24:27.283Z,5.60
2022-12-07T23:26:55.325Z,5.30
2022-12-07T23:29:23.389Z,5.13
2022-12-07T23:31:51.670Z,5.90
2022-12-07T23:34:20.007Z,6.30
2022-12-07T23:36:48.040Z,5.63
2022-12-07T23:39:16.119Z,5.20
2022-12-07T23:41:45.493Z,5.00
2022-12-07T23:44:13.540Z,5.23
2022-12-07T23:46:41.617Z,4.83
2022-12-07T23:49:10.028Z,5.47
2022-12-07T23:51:38.086Z,5.17
2022-12-07T23:54:06.232Z,5.23
2022-12-07T23:56:35.233Z,4.93
2022-12-07T23:59:05.840Z,5.23
